sensor_id;sensor_type;location;lat;lon;timestamp;pressure;altitude;pressure_sealevel;temperature;humidity
18569;BME280;14780;48.316;-1.050;2023-08-07T00:02:12;99686.13;;;23.18;45.70
18569;BME280;14780;48.316;-1.050;2023-08-07T00:04:57;99681.13;;;23.15;45.83
18569;BME280;14780;48.316;-1.050;2023-08-07T00:07:42;99672.09;;;23.15;45.69
18569;BME280;14780;48.316;-1.050;2023-08-07T00:10:27;99677.81;;;23.13;45.81
18569;BME280;14780;48.316;-1.050;2023-08-07T00:13:12;99681.38;;;23.14;45.83
18569;BME280;14780;48.316;-1.050;2023-08-07T00:15:56;99677.00;;;23.13;45.75
18569;BME280;14780;48.316;-1.050;2023-08-07T00:18:41;99679.66;;;23.08;45.82
18569;BME280;14780;48.316;-1.050;2023-08-07T00:21:26;99684.59;;;23.11;45.56
18569;BME280;14780;48.316;-1.050;2023-08-07T00:24:10;99673.03;;;23.04;45.84
18569;BME280;14780;48.316;-1.050;2023-08-07T00:26:55;99675.28;;;23.07;45.86
18569;BME280;14780;48.316;-1.050;2023-08-07T00:29:40;99679.09;;;23.06;45.75
18569;BME280;14780;48.316;-1.050;2023-08-07T00:32:25;99670.38;;;23.09;45.66
18569;BME280;14780;48.316;-1.050;2023-08-07T00:35:10;99668.19;;;23.06;45.75
18569;BME280;14780;48.316;-1.050;2023-08-07T00:37:54;99671.16;;;23.04;45.51
18569;BME280;14780;48.316;-1.050;2023-08-07T00:40:40;99672.72;;;23.00;45.82
18569;BME280;14780;48.316;-1.050;2023-08-07T00:43:25;99670.28;;;22.99;45.85
18569;BME280;14780;48.316;-1.050;2023-08-07T00:46:09;99677.38;;;23.00;45.86
18569;BME280;14780;48.316;-1.050;2023-08-07T00:48:55;99668.34;;;22.99;45.75
18569;BME280;14780;48.316;-1.050;2023-08-07T00:51:40;99664.50;;;22.95;45.92
18569;BME280;14780;48.316;-1.050;2023-08-07T00:54:25;99666.44;;;23.00;45.79
18569;BME280;14780;48.316;-1.050;2023-08-07T00:57:12;99668.88;;;22.96;45.80
18569;BME280;14780;48.316;-1.050;2023-08-07T01:00:00;99659.28;;;22.94;45.84
18569;BME280;14780;48.316;-1.050;2023-08-07T01:02:44;99657.03;;;22.91;45.70
18569;BME280;14780;48.316;-1.050;2023-08-07T01:05:30;99655.38;;;22.90;45.88
18569;BME280;14780;48.316;-1.050;2023-08-07T01:08:14;99662.75;;;22.89;45.78
18569;BME280;14780;48.316;-1.050;2023-08-07T01:14:25;99646.94;;;22.91;45.72
18569;BME280;14780;48.316;-1.050;2023-08-07T01:17:17;99640.66;;;22.91;45.77
18569;BME280;14780;48.316;-1.050;2023-08-07T01:20:04;99647.16;;;22.85;45.92
18569;BME280;14780;48.316;-1.050;2023-08-07T01:22:49;99638.97;;;22.85;45.89
18569;BME280;14780;48.316;-1.050;2023-08-07T01:25:35;99636.81;;;22.87;45.94
18569;BME280;14780;48.316;-1.050;2023-08-07T01:28:36;99638.88;;;22.80;46.07
18569;BME280;14780;48.316;-1.050;2023-08-07T01:31:23;99638.88;;;22.80;45.78
18569;BME280;14780;48.316;-1.050;2023-08-07T01:34:10;99649.81;;;22.80;45.98
18569;BME280;14780;48.316;-1.050;2023-08-07T01:36:57;99654.09;;;22.76;45.96
18569;BME280;14780;48.316;-1.050;2023-08-07T01:39:43;99643.50;;;22.79;45.72
18569;BME280;14780;48.316;-1.050;2023-08-07T01:42:28;99653.03;;;22.77;45.98
18569;BME280;14780;48.316;-1.050;2023-08-07T01:45:13;99649.66;;;22.70;46.00
18569;BME280;14780;48.316;-1.050;2023-08-07T01:47:58;99656.94;;;22.64;46.00
18569;BME280;14780;48.316;-1.050;2023-08-07T01:50:43;99659.50;;;22.71;45.90
18569;BME280;14780;48.316;-1.050;2023-08-07T01:53:28;99655.53;;;22.62;46.14
18569;BME280;14780;48.316;-1.050;2023-08-07T01:56:12;99656.59;;;22.61;45.90
18569;BME280;14780;48.316;-1.050;2023-08-07T01:58:57;99659.66;;;22.64;45.86
18569;BME280;14780;48.316;-1.050;2023-08-07T02:01:41;99655.53;;;22.62;45.84
18569;BME280;14780;48.316;-1.050;2023-08-07T02:04:26;99650.34;;;22.60;46.11
18569;BME280;14780;48.316;-1.050;2023-08-07T02:07:11;99641.88;;;22.62;46.02
18569;BME280;14780;48.316;-1.050;2023-08-07T02:09:55;99646.28;;;22.63;45.98
18569;BME280;14780;48.316;-1.050;2023-08-07T02:12:41;99643.56;;;22.63;45.81
18569;BME280;14780;48.316;-1.050;2023-08-07T02:15:25;99656.59;;;22.61;45.95
18569;BME280;14780;48.316;-1.050;2023-08-07T02:18:10;99648.09;;;22.57;46.23
18569;BME280;14780;48.316;-1.050;2023-08-07T02:20:55;99645.03;;;22.54;46.13
18569;BME280;14780;48.316;-1.050;2023-08-07T02:23:39;99643.72;;;22.56;46.02
18569;BME280;14780;48.316;-1.050;2023-08-07T02:26:24;99650.50;;;22.54;46.21
18569;BME280;14780;48.316;-1.050;2023-08-07T02:29:10;99654.31;;;22.53;46.17
18569;BME280;14780;48.316;-1.050;2023-08-07T02:31:55;99660.59;;;22.53;46.15
18569;BME280;14780;48.316;-1.050;2023-08-07T02:34:40;99654.50;;;22.46;46.26
18569;BME280;14780;48.316;-1.050;2023-08-07T02:37:25;99659.69;;;22.48;46.26
18569;BME280;14780;48.316;-1.050;2023-08-07T02:40:10;99670.34;;;22.49;46.30
18569;BME280;14780;48.316;-1.050;2023-08-07T02:42:55;99671.41;;;22.48;46.15
18569;BME280;14780;48.316;-1.050;2023-08-07T02:45:40;99655.28;;;22.47;46.23
18569;BME280;14780;48.316;-1.050;2023-08-07T02:48:24;99650.16;;;22.50;46.19
18569;BME280;14780;48.316;-1.050;2023-08-07T02:51:09;99643.06;;;22.49;46.25
18569;BME280;14780;48.316;-1.050;2023-08-07T02:53:54;99645.56;;;22.51;46.02
18569;BME280;14780;48.316;-1.050;2023-08-07T02:56:38;99645.47;;;22.46;46.41
18569;BME280;14780;48.316;-1.050;2023-08-07T02:59:23;99655.56;;;22.45;46.25
18569;BME280;14780;48.316;-1.050;2023-08-07T03:02:07;99637.81;;;22.43;46.39
18569;BME280;14780;48.316;-1.050;2023-08-07T03:04:52;99633.63;;;22.40;46.58
18569;BME280;14780;48.316;-1.050;2023-08-07T03:07:37;99641.81;;;22.40;46.55
18569;BME280;14780;48.316;-1.050;2023-08-07T03:10:21;99642.91;;;22.39;46.55
18569;BME280;14780;48.316;-1.050;2023-08-07T03:13:06;99632.91;;;22.45;46.17
18569;BME280;14780;48.316;-1.050;2023-08-07T03:15:58;99635.53;;;22.40;46.29
18569;BME280;14780;48.316;-1.050;2023-08-07T03:18:43;99637.81;;;22.43;46.25
18569;BME280;14780;48.316;-1.050;2023-08-07T03:21:28;99648.72;;;22.43;46.45
18569;BME280;14780;48.316;-1.050;2023-08-07T03:24:12;99639.31;;;22.39;46.46
18569;BME280;14780;48.316;-1.050;2023-08-07T03:26:57;99641.25;;;22.38;46.41
18569;BME280;14780;48.316;-1.050;2023-08-07T03:29:41;99642.56;;;22.36;46.52
18569;BME280;14780;48.316;-1.050;2023-08-07T03:32:26;99632.22;;;22.38;46.48
18569;BME280;14780;48.316;-1.050;2023-08-07T03:35:11;99625.88;;;22.32;46.60
18569;BME280;14780;48.316;-1.050;2023-08-07T03:37:55;99634.81;;;22.28;46.62
18569;BME280;14780;48.316;-1.050;2023-08-07T03:40:40;99630.16;;;22.28;46.63
18569;BME280;14780;48.316;-1.050;2023-08-07T03:43:25;99628.38;;;22.34;46.42
18569;BME280;14780;48.316;-1.050;2023-08-07T03:46:10;99626.03;;;22.26;46.80
18569;BME280;14780;48.316;-1.050;2023-08-07T03:48:54;99629.84;;;22.25;46.67
18569;BME280;14780;48.316;-1.050;2023-08-07T03:51:39;99635.28;;;22.25;46.93
18569;BME280;14780;48.316;-1.050;2023-08-07T03:54:24;99622.25;;;22.27;46.44
18569;BME280;14780;48.316;-1.050;2023-08-07T03:57:09;99614.00;;;22.22;46.74
18569;BME280;14780;48.316;-1.050;2023-08-07T03:59:55;99626.53;;;22.23;46.62
18569;BME280;14780;48.316;-1.050;2023-08-07T04:02:41;99633.88;;;22.22;46.59
18569;BME280;14780;48.316;-1.050;2023-08-07T04:05:25;99639.59;;;22.21;46.56
18569;BME280;14780;48.316;-1.050;2023-08-07T04:08:10;99632.50;;;22.20;46.83
18569;BME280;14780;48.316;-1.050;2023-08-07T04:11:02;99630.81;;;22.19;46.57
18569;BME280;14780;48.316;-1.050;2023-08-07T04:13:47;99633.81;;;22.17;46.53
18569;BME280;14780;48.316;-1.050;2023-08-07T04:16:31;99632.66;;;22.13;46.68
18569;BME280;14780;48.316;-1.050;2023-08-07T04:19:16;99631.25;;;22.11;46.61
18569;BME280;14780;48.316;-1.050;2023-08-07T04:22:01;99633.50;;;22.14;46.69
18569;BME280;14780;48.316;-1.050;2023-08-07T04:24:46;99632.91;;;22.12;46.63
18569;BME280;14780;48.316;-1.050;2023-08-07T04:27:31;99646.94;;;22.04;47.20
18569;BME280;14780;48.316;-1.050;2023-08-07T04:30:15;99633.31;;;22.04;46.78
18569;BME280;14780;48.316;-1.050;2023-08-07T04:33:00;99637.94;;;22.03;47.11
18569;BME280;14780;48.316;-1.050;2023-08-07T04:35:45;99637.44;;;22.06;46.83
18569;BME280;14780;48.316;-1.050;2023-08-07T04:38:31;99627.84;;;22.04;46.93
18569;BME280;14780;48.316;-1.050;2023-08-07T04:41:16;99628.13;;;22.02;46.81
18569;BME280;14780;48.316;-1.050;2023-08-07T04:44:00;99631.97;;;22.06;46.72
18569;BME280;14780;48.316;-1.050;2023-08-07T04:46:45;99638.28;;;22.07;46.55
18569;BME280;14780;48.316;-1.050;2023-08-07T04:49:30;99645.03;;;22.04;46.72
18569;BME280;14780;48.316;-1.050;2023-08-07T04:52:14;99633.81;;;22.01;46.94
18569;BME280;14780;48.316;-1.050;2023-08-07T04:54:59;99635.34;;;21.97;47.19
18569;BME280;14780;48.316;-1.050;2023-08-07T04:57:44;99640.81;;;21.97;46.87
18569;BME280;14780;48.316;-1.050;2023-08-07T05:00:28;99632.06;;;21.95;47.11
18569;BME280;14780;48.316;-1.050;2023-08-07T05:03:13;99648.31;;;21.90;47.32
18569;BME280;14780;48.316;-1.050;2023-08-07T05:06:00;99651.13;;;21.95;46.91
18569;BME280;14780;48.316;-1.050;2023-08-07T05:08:45;99651.47;;;21.98;46.61
18569;BME280;14780;48.316;-1.050;2023-08-07T05:11:30;99653.13;;;21.99;46.94
18569;BME280;14780;48.316;-1.050;2023-08-07T05:14:14;99650.41;;;21.99;46.64
18569;BME280;14780;48.316;-1.050;2023-08-07T05:16:59;99655.91;;;21.88;47.06
18569;BME280;14780;48.316;-1.050;2023-08-07T05:19:44;99649.50;;;21.94;47.12
18569;BME280;14780;48.316;-1.050;2023-08-07T05:22:30;99653.63;;;21.96;46.73
18569;BME280;14780;48.316;-1.050;2023-08-07T05:25:15;99648.91;;;21.92;46.73
18569;BME280;14780;48.316;-1.050;2023-08-07T05:28:00;99646.94;;;21.87;47.29
18569;BME280;14780;48.316;-1.050;2023-08-07T05:30:45;99648.31;;;21.90;46.98
18569;BME280;14780;48.316;-1.050;2023-08-07T05:33:30;99652.44;;;21.92;47.01
18569;BME280;14780;48.316;-1.050;2023-08-07T05:36:14;99648.19;;;21.96;46.87
18569;BME280;14780;48.316;-1.050;2023-08-07T05:38:59;99657.75;;;21.99;46.84
18569;BME280;14780;48.316;-1.050;2023-08-07T05:41:43;99657.44;;;21.95;47.03
18569;BME280;14780;48.316;-1.050;2023-08-07T05:44:30;99664.53;;;21.96;46.84
18569;BME280;14780;48.316;-1.050;2023-08-07T05:47:14;99653.28;;;21.93;46.75
18569;BME280;14780;48.316;-1.050;2023-08-07T05:49:59;99647.59;;;21.94;46.88
18569;BME280;14780;48.316;-1.050;2023-08-07T05:52:44;99655.44;;;21.91;47.00
18569;BME280;14780;48.316;-1.050;2023-08-07T05:55:28;99655.44;;;21.91;46.88
18569;BME280;14780;48.316;-1.050;2023-08-07T05:58:13;99656.59;;;21.95;46.72
18569;BME280;14780;48.316;-1.050;2023-08-07T06:00:58;99652.44;;;21.92;46.84
18569;BME280;14780;48.316;-1.050;2023-08-07T06:03:42;99650.56;;;21.93;46.82
18569;BME280;14780;48.316;-1.050;2023-08-07T06:06:27;99655.03;;;21.99;46.66
18569;BME280;14780;48.316;-1.050;2023-08-07T06:09:18;99662.03;;;21.95;46.87
18569;BME280;14780;48.316;-1.050;2023-08-07T06:12:05;99669.41;;;21.94;46.72
18569;BME280;14780;48.316;-1.050;2023-08-07T06:14:49;99667.16;;;21.91;46.69
18569;BME280;14780;48.316;-1.050;2023-08-07T06:17:34;99673.16;;;21.93;46.63
18569;BME280;14780;48.316;-1.050;2023-08-07T06:20:19;99673.78;;;21.95;46.89
18569;BME280;14780;48.316;-1.050;2023-08-07T06:23:05;99677.47;;;21.89;47.02
18569;BME280;14780;48.316;-1.050;2023-08-07T06:25:50;99675.66;;;21.95;47.10
18569;BME280;14780;48.316;-1.050;2023-08-07T06:28:35;99664.84;;;22.00;46.87
18569;BME280;14780;48.316;-1.050;2023-08-07T06:31:21;99678.47;;;22.00;47.06
18569;BME280;14780;48.316;-1.050;2023-08-07T06:34:05;99681.94;;;21.95;46.73
18569;BME280;14780;48.316;-1.050;2023-08-07T06:36:50;99682.19;;;21.94;46.81
18569;BME280;14780;48.316;-1.050;2023-08-07T06:39:35;99683.38;;;21.98;46.69
18569;BME280;14780;48.316;-1.050;2023-08-07T06:42:19;99679.78;;;21.97;46.70
18569;BME280;14780;48.316;-1.050;2023-08-07T06:45:04;99685.41;;;21.91;46.94
18569;BME280;14780;48.316;-1.050;2023-08-07T06:47:49;99687.28;;;21.90;46.73
18569;BME280;14780;48.316;-1.050;2023-08-07T06:50:33;99692.50;;;21.92;46.87
18569;BME280;14780;48.316;-1.050;2023-08-07T06:53:19;99692.50;;;21.92;46.73
18569;BME280;14780;48.316;-1.050;2023-08-07T06:56:03;99690.34;;;21.94;47.07
18569;BME280;14780;48.316;-1.050;2023-08-07T06:58:48;99700.19;;;21.95;47.18
18569;BME280;14780;48.316;-1.050;2023-08-07T07:01:32;99698.03;;;21.97;47.29
18569;BME280;14780;48.316;-1.050;2023-08-07T07:04:17;99700.75;;;21.97;47.09
18569;BME280;14780;48.316;-1.050;2023-08-07T07:07:03;99702.34;;;21.93;47.19
18569;BME280;14780;48.316;-1.050;2023-08-07T07:09:47;99701.84;;;21.96;47.17
18569;BME280;14780;48.316;-1.050;2023-08-07T07:12:32;99702.16;;;21.99;46.96
18569;BME280;14780;48.316;-1.050;2023-08-07T07:15:17;99713.91;;;22.00;46.99
18569;BME280;14780;48.316;-1.050;2023-08-07T07:18:02;99720.16;;;22.00;47.07
18569;BME280;14780;48.316;-1.050;2023-08-07T07:20:47;99712.50;;;21.97;46.87
18569;BME280;14780;48.316;-1.050;2023-08-07T07:23:32;99714.38;;;21.97;47.10
18569;BME280;14780;48.316;-1.050;2023-08-07T07:26:16;99714.38;;;21.97;47.13
18569;BME280;14780;48.316;-1.050;2023-08-07T07:29:01;99722.31;;;21.98;47.02
18569;BME280;14780;48.316;-1.050;2023-08-07T07:31:46;99724.22;;;21.98;47.23
18569;BME280;14780;48.316;-1.050;2023-08-07T07:34:31;99717.72;;;21.99;47.26
18569;BME280;14780;48.316;-1.050;2023-08-07T07:37:17;99723.16;;;21.99;46.98
18569;BME280;14780;48.316;-1.050;2023-08-07T07:40:02;99726.47;;;22.01;47.22
18569;BME280;14780;48.316;-1.050;2023-08-07T07:42:47;99730.25;;;22.00;47.32
18569;BME280;14780;48.316;-1.050;2023-08-07T07:45:32;99735.81;;;22.05;47.00
18569;BME280;14780;48.316;-1.050;2023-08-07T07:48:20;99728.59;;;21.99;47.54
18569;BME280;14780;48.316;-1.050;2023-08-07T07:51:05;99730.25;;;22.00;47.33
18569;BME280;14780;48.316;-1.050;2023-08-07T07:53:50;99728.94;;;22.02;47.31
18569;BME280;14780;48.316;-1.050;2023-08-07T07:56:35;99729.75;;;22.03;47.36
18569;BME280;14780;48.316;-1.050;2023-08-07T07:59:20;99721.69;;;22.08;47.20
18569;BME280;14780;48.316;-1.050;2023-08-07T08:02:05;99718.84;;;22.03;47.29
18569;BME280;14780;48.316;-1.050;2023-08-07T08:04:51;99727.13;;;22.08;47.06
18569;BME280;14780;48.316;-1.050;2023-08-07T08:07:37;99729.53;;;22.04;47.27
18569;BME280;14780;48.316;-1.050;2023-08-07T08:10:23;99729.28;;;22.06;47.10
18569;BME280;14780;48.316;-1.050;2023-08-07T08:13:09;99727.13;;;22.08;47.10
18569;BME280;14780;48.316;-1.050;2023-08-07T08:15:54;99723.84;;;22.06;47.18
18569;BME280;14780;48.316;-1.050;2023-08-07T08:18:39;99730.09;;;22.06;47.34
18569;BME280;14780;48.316;-1.050;2023-08-07T08:21:23;99729.84;;;22.08;47.23
18569;BME280;14780;48.316;-1.050;2023-08-07T08:24:08;99730.44;;;22.10;47.39
18569;BME280;14780;48.316;-1.050;2023-08-07T08:26:52;99727.69;;;22.10;47.33
18569;BME280;14780;48.316;-1.050;2023-08-07T08:29:37;99732.75;;;22.01;47.69
18569;BME280;14780;48.316;-1.050;2023-08-07T08:32:22;99733.75;;;22.12;47.41
18569;BME280;14780;48.316;-1.050;2023-08-07T08:35:06;99733.75;;;22.12;47.36
18569;BME280;14780;48.316;-1.050;2023-08-07T08:37:51;99731.59;;;22.14;47.51
18569;BME280;14780;48.316;-1.050;2023-08-07T08:40:38;99728.94;;;22.19;47.46
18569;BME280;14780;48.316;-1.050;2023-08-07T08:43:24;99726.50;;;22.17;47.45
18569;BME280;14780;48.316;-1.050;2023-08-07T08:46:09;99726.50;;;22.17;47.42
18569;BME280;14780;48.316;-1.050;2023-08-07T08:48:57;99730.13;;;22.23;47.56
18569;BME280;14780;48.316;-1.050;2023-08-07T08:51:43;99729.78;;;22.19;47.49
18569;BME280;14780;48.316;-1.050;2023-08-07T08:54:29;99727.41;;;22.23;47.40
18569;BME280;14780;48.316;-1.050;2023-08-07T08:57:15;99731.44;;;22.20;47.41
18569;BME280;14780;48.316;-1.050;2023-08-07T09:00:00;99727.97;;;22.25;47.43
18569;BME280;14780;48.316;-1.050;2023-08-07T09:02:50;99735.56;;;22.23;47.67
18569;BME280;14780;48.316;-1.050;2023-08-07T09:05:36;99728.47;;;22.22;47.82
18569;BME280;14780;48.316;-1.050;2023-08-07T09:08:23;99733.41;;;22.25;47.72
18569;BME280;14780;48.316;-1.050;2023-08-07T09:11:11;99736.47;;;22.28;47.72
18569;BME280;14780;48.316;-1.050;2023-08-07T09:13:57;99732.09;;;22.27;47.76
18569;BME280;14780;48.316;-1.050;2023-08-07T09:16:45;99743.25;;;22.26;48.06
18569;BME280;14780;48.316;-1.050;2023-08-07T09:19:32;99734.25;;;22.25;48.06
18569;BME280;14780;48.316;-1.050;2023-08-07T09:22:18;99728.63;;;22.32;48.07
18569;BME280;14780;48.316;-1.050;2023-08-07T09:25:03;99735.84;;;22.38;47.78
18569;BME280;14780;48.316;-1.050;2023-08-07T09:27:48;99737.41;;;22.34;47.89
18569;BME280;14780;48.316;-1.050;2023-08-07T09:30:35;99733.53;;;22.30;48.09
18569;BME280;14780;48.316;-1.050;2023-08-07T09:33:28;99730.22;;;22.28;48.02
18569;BME280;14780;48.316;-1.050;2023-08-07T09:36:13;99730.63;;;22.36;47.78
18569;BME280;14780;48.316;-1.050;2023-08-07T09:39:01;99730.00;;;22.46;47.54
18569;BME280;14780;48.316;-1.050;2023-08-07T09:41:51;99734.31;;;22.42;47.72
18569;BME280;14780;48.316;-1.050;2023-08-07T09:44:37;99730.50;;;22.43;47.41
18569;BME280;14780;48.316;-1.050;2023-08-07T09:47:22;99738.78;;;22.48;47.47
18569;BME280;14780;48.316;-1.050;2023-08-07T09:50:07;99732.72;;;22.46;47.50
18569;BME280;14780;48.316;-1.050;2023-08-07T09:52:52;99747.78;;;22.48;47.43
18569;BME280;14780;48.316;-1.050;2023-08-07T09:55:37;99740.25;;;22.55;47.34
18569;BME280;14780;48.316;-1.050;2023-08-07T09:58:22;99738.44;;;22.61;47.13
18569;BME280;14780;48.316;-1.050;2023-08-07T10:01:08;99732.97;;;22.61;46.99
18569;BME280;14780;48.316;-1.050;2023-08-07T10:03:54;99727.84;;;22.64;47.03
18569;BME280;14780;48.316;-1.050;2023-08-07T10:06:39;99733.56;;;22.63;46.92
18569;BME280;14780;48.316;-1.050;2023-08-07T10:09:24;99722.25;;;22.71;46.95
18569;BME280;14780;48.316;-1.050;2023-08-07T10:12:11;99720.09;;;22.73;46.61
18569;BME280;14780;48.316;-1.050;2023-08-07T10:15:01;99727.28;;;22.79;46.62
18569;BME280;14780;48.316;-1.050;2023-08-07T10:17:46;99720.72;;;22.80;46.60
18569;BME280;14780;48.316;-1.050;2023-08-07T10:20:31;99727.84;;;22.81;46.72
18569;BME280;14780;48.316;-1.050;2023-08-07T10:23:17;99708.25;;;22.84;46.68
18569;BME280;14780;48.316;-1.050;2023-08-07T10:26:05;99716.44;;;22.84;46.52
18569;BME280;14780;48.316;-1.050;2023-08-07T10:28:53;99718.09;;;22.85;46.47
18569;BME280;14780;48.316;-1.050;2023-08-07T10:31:39;99714.94;;;22.93;46.34
18569;BME280;14780;48.316;-1.050;2023-08-07T10:34:29;99715.75;;;22.93;46.40
18569;BME280;14780;48.316;-1.050;2023-08-07T10:40:27;99700.59;;;23.02;46.09
18569;BME280;14780;48.316;-1.050;2023-08-07T10:43:16;99706.06;;;23.02;46.07
18569;BME280;14780;48.316;-1.050;2023-08-07T10:46:06;99707.75;;;23.08;45.90
18569;BME280;14780;48.316;-1.050;2023-08-07T10:48:56;99714.06;;;23.09;45.80
18569;BME280;14780;48.316;-1.050;2023-08-07T10:51:42;99704.78;;;23.10;45.88
18569;BME280;14780;48.316;-1.050;2023-08-07T10:54:26;99700.00;;;23.17;45.77
18569;BME280;14780;48.316;-1.050;2023-08-07T10:57:15;99703.06;;;23.20;45.66
18569;BME280;14780;48.316;-1.050;2023-08-07T11:00:04;99703.38;;;23.24;45.55
18569;BME280;14780;48.316;-1.050;2023-08-07T11:02:54;99696.38;;;23.33;45.39
18569;BME280;14780;48.316;-1.050;2023-08-07T11:05:42;99691.56;;;23.39;45.16
18569;BME280;14780;48.316;-1.050;2023-08-07T11:08:27;99694.91;;;23.46;44.98
18569;BME280;14780;48.316;-1.050;2023-08-07T11:11:13;99702.63;;;23.49;45.11
18569;BME280;14780;48.316;-1.050;2023-08-07T11:13:58;99703.75;;;23.53;44.95
18569;BME280;14780;48.316;-1.050;2023-08-07T11:16:43;99701.53;;;23.50;45.00
18569;BME280;14780;48.316;-1.050;2023-08-07T11:19:29;99708.09;;;23.49;44.99
18569;BME280;14780;48.316;-1.050;2023-08-07T11:22:16;99699.31;;;23.47;44.87
18569;BME280;14780;48.316;-1.050;2023-08-07T11:25:01;99698.03;;;23.55;44.91
18569;BME280;14780;48.316;-1.050;2023-08-07T11:27:46;99699.69;;;23.56;44.96
18569;BME280;14780;48.316;-1.050;2023-08-07T11:30:31;99699.94;;;23.54;44.91
18569;BME280;14780;48.316;-1.050;2023-08-07T11:33:17;99696.72;;;23.57;44.99
18569;BME280;14780;48.316;-1.050;2023-08-07T11:36:02;99704.06;;;23.57;44.99
18569;BME280;14780;48.316;-1.050;2023-08-07T11:38:47;99703.25;;;23.56;44.85
18569;BME280;14780;48.316;-1.050;2023-08-07T11:41:32;99693.97;;;23.57;44.90
18569;BME280;14780;48.316;-1.050;2023-08-07T11:44:17;99700.00;;;23.59;44.90
18569;BME280;14780;48.316;-1.050;2023-08-07T11:47:03;99706.63;;;23.63;44.80
18569;BME280;14780;48.316;-1.050;2023-08-07T11:49:48;99699.47;;;23.62;44.81
18569;BME280;14780;48.316;-1.050;2023-08-07T11:52:33;99701.97;;;23.64;44.77
18569;BME280;14780;48.316;-1.050;2023-08-07T11:55:18;99697.91;;;23.66;44.88
18569;BME280;14780;48.316;-1.050;2023-08-07T11:58:07;99685.88;;;23.67;44.94
18569;BME280;14780;48.316;-1.050;2023-08-07T12:00:53;99692.19;;;23.68;44.84
18569;BME280;14780;48.316;-1.050;2023-08-07T12:03:41;99682.34;;;23.67;44.98
18569;BME280;14780;48.316;-1.050;2023-08-07T12:06:26;99689.69;;;23.66;44.86
18569;BME280;14780;48.316;-1.050;2023-08-07T12:09:12;99694.63;;;23.69;44.75
18569;BME280;14780;48.316;-1.050;2023-08-07T12:11:58;99688.75;;;23.77;44.56
18569;BME280;14780;48.316;-1.050;2023-08-07T12:14:43;99677.84;;;23.82;44.36
18569;BME280;14780;48.316;-1.050;2023-08-07T12:17:31;99683.16;;;23.89;44.30
18569;BME280;14780;48.316;-1.050;2023-08-07T12:20:16;99688.94;;;23.92;44.34
18569;BME280;14780;48.316;-1.050;2023-08-07T12:23:02;99681.53;;;23.93;44.17
18569;BME280;14780;48.316;-1.050;2023-08-07T12:25:46;99672.84;;;23.96;44.21
18569;BME280;14780;48.316;-1.050;2023-08-07T12:28:31;99678.31;;;23.96;44.47
18569;BME280;14780;48.316;-1.050;2023-08-07T12:31:15;99674.19;;;23.98;44.25
18569;BME280;14780;48.316;-1.050;2023-08-07T12:34:01;99671.59;;;24.08;44.19
18569;BME280;14780;48.316;-1.050;2023-08-07T12:36:46;99672.38;;;24.09;44.30
18569;BME280;14780;48.316;-1.050;2023-08-07T12:39:31;99670.84;;;24.18;44.20
18569;BME280;14780;48.316;-1.050;2023-08-07T12:42:15;99664.53;;;24.17;44.06
18569;BME280;14780;48.316;-1.050;2023-08-07T12:45:00;99666.78;;;24.20;44.05
18569;BME280;14780;48.316;-1.050;2023-08-07T12:47:46;99659.16;;;24.27;43.92
18569;BME280;14780;48.316;-1.050;2023-08-07T12:50:30;99654.81;;;24.31;43.83
18569;BME280;14780;48.316;-1.050;2023-08-07T12:53:15;99660.28;;;24.31;43.80
18569;BME280;14780;48.316;-1.050;2023-08-07T12:56:00;99652.63;;;24.33;43.52
18569;BME280;14780;48.316;-1.050;2023-08-07T12:58:45;99654.28;;;24.34;43.54
18569;BME280;14780;48.316;-1.050;2023-08-07T13:01:31;99657.63;;;24.41;43.50
18569;BME280;14780;48.316;-1.050;2023-08-07T13:04:15;99653.78;;;24.37;43.19
18569;BME280;14780;48.316;-1.050;2023-08-07T13:07:00;99660.34;;;24.36;43.66
18569;BME280;14780;48.316;-1.050;2023-08-07T13:09:45;99656.75;;;24.36;43.65
18569;BME280;14780;48.316;-1.050;2023-08-07T13:12:30;99652.13;;;24.36;43.66
18569;BME280;14780;48.316;-1.050;2023-08-07T13:15:18;99654.63;;;24.43;43.68
18569;BME280;14780;48.316;-1.050;2023-08-07T13:18:03;99651.38;;;24.46;43.62
18569;BME280;14780;48.316;-1.050;2023-08-07T13:20:48;99652.19;;;24.46;43.63
18569;BME280;14780;48.316;-1.050;2023-08-07T13:23:32;99642.94;;;24.52;43.58
18569;BME280;14780;48.316;-1.050;2023-08-07T13:26:17;99637.81;;;24.56;43.55
18569;BME280;14780;48.316;-1.050;2023-08-07T13:29:02;99639.69;;;24.55;43.66
18569;BME280;14780;48.316;-1.050;2023-08-07T13:31:46;99643.28;;;24.56;43.61
18569;BME280;14780;48.316;-1.050;2023-08-07T13:34:32;99648.97;;;24.54;43.57
18569;BME280;14780;48.316;-1.050;2023-08-07T13:37:17;99643.19;;;24.51;43.64
18569;BME280;14780;48.316;-1.050;2023-08-07T13:40:02;99642.66;;;24.49;43.87
18569;BME280;14780;48.316;-1.050;2023-08-07T13:42:48;99636.91;;;24.50;43.98
18569;BME280;14780;48.316;-1.050;2023-08-07T13:45:33;99640.75;;;24.49;43.92
18569;BME280;14780;48.316;-1.050;2023-08-07T13:48:17;99646.22;;;24.49;43.89
18569;BME280;14780;48.316;-1.050;2023-08-07T13:51:02;99640.75;;;24.49;43.92
18569;BME280;14780;48.316;-1.050;2023-08-07T13:53:51;99644.00;;;24.46;44.03
18569;BME280;14780;48.316;-1.050;2023-08-07T13:56:37;99650.25;;;24.42;44.13
18569;BME280;14780;48.316;-1.050;2023-08-07T13:59:21;99652.19;;;24.46;44.20
18569;BME280;14780;48.316;-1.050;2023-08-07T14:02:06;99654.97;;;24.51;44.23
18569;BME280;14780;48.316;-1.050;2023-08-07T14:04:51;99656.63;;;24.52;44.14
18569;BME280;14780;48.316;-1.050;2023-08-07T14:07:37;99642.69;;;24.54;44.19
18569;BME280;14780;48.316;-1.050;2023-08-07T14:10:21;99641.34;;;24.56;44.25
18569;BME280;14780;48.316;-1.050;2023-08-07T14:13:06;99649.59;;;24.61;44.05
18569;BME280;14780;48.316;-1.050;2023-08-07T14:15:51;99643.63;;;24.64;44.06
18569;BME280;14780;48.316;-1.050;2023-08-07T14:18:36;99644.41;;;24.65;43.98
18569;BME280;14780;48.316;-1.050;2023-08-07T14:21:20;99644.47;;;24.70;43.96
18569;BME280;14780;48.316;-1.050;2023-08-07T14:24:05;99644.22;;;24.71;43.99
18569;BME280;14780;48.316;-1.050;2023-08-07T14:26:50;99648.31;;;24.74;44.00
18569;BME280;14780;48.316;-1.050;2023-08-07T14:29:35;99641.16;;;24.68;44.36
18569;BME280;14780;48.316;-1.050;2023-08-07T14:32:20;99635.19;;;24.76;44.06